Hufsmith, Texas
Current Conditions -  °F | °C
As of 4:53 PM on Wednesday 17 Dec 2014 (Local Time) from KDWH Reporting Station
Overcast Overcast  
Wind Chill: 61°   Ceiling: 2600
Heat Index: 61°   Visibility: 10mi
Dew Point: 53°   Wind: 9mph
Humidity: 75%   Direction: 110°ESE
Pressure: 30.08"   Gusts: NA
Location:  30.12°N, 95.6°W
Report Text: KDWH 172253Z 11008KT 10SM OVC026 16/12 A3008 RMK AO2 RAB13E36 SLP185 P0000 T01610117
Loading
Personal Weather Stations






























Interactive Weather Map New forecast layout! Learn more

10-Day Weather Forecast

Advertisements
Track Severe Weather on mobile